createdAt,value
2022-09-28T00:28:23.880Z,12.64
2022-09-28T00:55:38.714Z,12.14
2022-09-28T01:24:48.772Z,11.92
2022-09-28T01:38:41.470Z,11.82
2022-09-28T01:42:46.435Z,11.79
2022-09-28T01:46:02.956Z,11.81
2022-09-28T02:16:23.188Z,11.84
2022-09-28T02:23:42.330Z,11.62
2022-09-28T02:26:28.832Z,11.66
2022-09-28T02:40:40.652Z,11.66
2022-09-28T02:45:42.735Z,11.70
2022-09-28T03:08:03.421Z,11.80
2022-09-28T03:15:33.579Z,11.86
2022-09-28T03:21:57.322Z,11.84
2022-09-28T03:24:22.671Z,11.76
2022-09-28T03:32:52.997Z,11.64
2022-09-28T03:36:35.273Z,11.68
2022-09-28T03:42:42.583Z,11.66
2022-09-28T03:45:07.625Z,11.74
2022-09-28T03:48:21.734Z,11.79
2022-09-28T03:55:24.558Z,11.77
2022-09-28T03:58:28.998Z,11.80
2022-09-28T04:01:44.441Z,11.83
2022-09-28T04:12:47.061Z,11.74
2022-09-28T04:16:44.727Z,11.63
2022-09-28T04:26:14.015Z,11.56
2022-09-28T04:44:47.347Z,11.46
2022-09-28T05:13:42.089Z,11.55
2022-09-28T05:16:10.386Z,11.57
2022-09-28T05:18:37.491Z,11.54
2022-09-28T05:21:09.975Z,11.65
2022-09-28T05:23:36.887Z,11.67
2022-09-28T05:26:04.324Z,11.60
2022-09-28T05:28:33.607Z,11.50
2022-09-28T05:31:02.943Z,11.61
2022-09-28T05:33:31.949Z,11.59
2022-09-28T05:36:01.532Z,11.60
2022-09-28T05:38:30.079Z,11.63
2022-09-28T05:40:57.625Z,11.54
2022-09-28T05:43:24.847Z,11.58
2022-09-28T05:45:55.674Z,11.61
2022-09-28T05:48:23.281Z,11.61
2022-09-28T05:50:53.259Z,11.59
2022-09-28T05:53:20.440Z,11.57
2022-09-28T05:55:48.137Z,11.58
2022-09-28T05:58:15.715Z,11.40
2022-09-28T06:00:43.339Z,11.49
2022-09-28T06:03:14.733Z,11.48
2022-09-28T06:05:41.936Z,11.51
2022-09-28T06:08:12.874Z,11.51
2022-09-28T06:10:40.922Z,11.60
2022-09-28T06:13:08.562Z,11.90
2022-09-28T06:15:36.926Z,11.68
2022-09-28T06:18:07.618Z,11.55
2022-09-28T06:20:37.698Z,11.62
2022-09-28T06:23:04.842Z,11.64
2022-09-28T06:25:32.599Z,11.68
2022-09-28T06:28:11.982Z,11.71
2022-09-28T06:30:39.538Z,11.67
2022-09-28T06:33:10.000Z,11.66
2022-09-28T06:35:37.305Z,12.08
2022-09-28T06:38:04.720Z,11.84
2022-09-28T06:40:32.081Z,12.07
2022-09-28T06:43:02.795Z,12.13
2022-09-28T06:45:31.067Z,12.23
2022-09-28T06:48:00.529Z,12.43
2022-09-28T06:50:33.910Z,13.86
2022-09-28T06:53:01.829Z,13.41
2022-09-28T06:55:29.675Z,13.05
2022-09-28T06:58:07.876Z,13.02
2022-09-28T07:00:37.375Z,12.68
2022-09-28T07:03:07.356Z,12.87
2022-09-28T07:05:37.146Z,12.77
2022-09-28T07:08:14.751Z,12.97
2022-09-28T07:10:49.933Z,13.07
2022-09-28T07:13:45.686Z,12.77
2022-09-28T07:16:04.591Z,12.88
2022-09-28T07:18:31.554Z,12.83
2022-09-28T07:20:59.680Z,12.88
2022-09-28T07:23:28.563Z,12.93
2022-09-28T07:25:55.626Z,12.87
2022-09-28T07:28:22.561Z,12.68
2022-09-28T07:30:49.573Z,12.73
2022-09-28T07:33:17.569Z,13.07
2022-09-28T07:35:52.914Z,13.16
2022-09-28T07:38:20.066Z,13.54
2022-09-28T07:41:05.898Z,13.68
2022-09-28T07:43:33.112Z,13.73
2022-09-28T07:46:00.105Z,13.78
2022-09-28T07:48:27.108Z,13.54
2022-09-28T07:51:00.057Z,13.29
2022-09-28T07:53:27.259Z,13.16
2022-09-28T08:28:46.790Z,14.39
2022-09-28T08:31:14.255Z,14.32
2022-09-28T08:33:42.196Z,14.82
2022-09-28T08:36:10.761Z,15.02
2022-09-28T08:38:37.905Z,14.86
2022-09-28T08:41:40.269Z,15.07
2022-09-28T08:44:24.156Z,15.93
2022-09-28T08:47:02.059Z,17.03
2022-09-28T08:49:39.953Z,18.16
2022-09-28T08:52:18.815Z,17.50
2022-09-28T08:55:06.396Z,17.91
2022-09-28T08:57:55.841Z,17.11
2022-09-28T09:00:51.020Z,16.59
2022-09-28T09:03:23.835Z,17.47
2022-09-28T09:06:22.026Z,17.95
2022-09-28T09:09:23.081Z,18.04
2022-09-28T09:12:05.683Z,18.59
2022-09-28T09:14:57.156Z,18.64
2022-09-28T09:18:03.471Z,18.50
2022-09-28T09:20:58.619Z,18.31
2022-09-28T09:23:49.789Z,19.23
2022-09-28T09:26:39.643Z,18.75
2022-09-28T09:29:37.520Z,19.34
2022-09-28T09:32:54.272Z,21.01
2022-09-28T09:36:14.220Z,20.72
2022-09-28T09:39:27.778Z,20.10
2022-09-28T09:42:11.021Z,19.52
2022-09-28T09:45:06.247Z,21.34
2022-09-28T09:47:43.225Z,21.09
2022-09-28T09:50:33.555Z,21.02
2022-09-28T09:53:26.601Z,21.82
2022-09-28T09:56:01.277Z,21.75
2022-09-28T09:58:44.755Z,21.93
2022-09-28T10:01:15.900Z,21.40
2022-09-28T10:03:48.672Z,22.31
2022-09-28T10:06:27.508Z,21.03
2022-09-28T10:09:26.634Z,21.36
2022-09-28T10:11:54.438Z,22.42
2022-09-28T10:14:24.423Z,22.90
2022-09-28T10:16:58.106Z,21.91
2022-09-28T10:19:33.937Z,21.34
2022-09-28T10:22:05.884Z,21.28
2022-09-28T10:47:19.109Z,18.30
2022-09-28T10:49:50.768Z,18.22
2022-09-28T10:52:42.646Z,18.04
2022-09-28T10:55:32.290Z,17.71
2022-09-28T10:58:00.509Z,17.35
2022-09-28T11:00:41.775Z,17.31
2022-09-28T11:03:27.426Z,17.57
2022-09-28T11:05:56.484Z,17.56
2022-09-28T11:08:34.263Z,17.68
2022-09-28T11:11:22.174Z,17.98
2022-09-28T11:14:01.227Z,18.25
2022-09-28T11:16:38.950Z,18.63
2022-09-28T11:19:31.905Z,18.85
2022-09-28T11:21:58.851Z,18.70
2022-09-28T11:24:27.134Z,18.73
2022-09-28T11:27:00.279Z,17.99
2022-09-28T11:29:41.802Z,18.31
2022-09-28T11:32:15.544Z,18.19
2022-09-28T11:34:58.979Z,18.25
2022-09-28T11:37:50.671Z,18.28
2022-09-28T11:40:26.536Z,18.17
2022-09-28T11:43:36.109Z,18.11
2022-09-28T11:46:26.295Z,17.78
2022-09-28T11:49:14.572Z,17.60
2022-09-28T11:51:46.024Z,17.70
2022-09-28T11:54:33.699Z,17.61
2022-09-28T11:57:05.201Z,17.71
2022-09-28T11:59:43.143Z,17.95
2022-09-28T12:02:44.138Z,17.84
2022-09-28T12:05:25.122Z,18.05
2022-09-28T12:08:08.605Z,17.64
2022-09-28T12:10:48.895Z,17.55
2022-09-28T12:13:26.681Z,17.35
2022-09-28T12:16:27.643Z,17.52
2022-09-28T12:19:15.395Z,17.51
2022-09-28T12:21:55.106Z,16.98
2022-09-28T12:24:38.570Z,16.65
2022-09-28T12:27:33.480Z,16.50
2022-09-28T12:30:19.441Z,16.54
2022-09-28T12:33:12.355Z,16.43
2022-09-28T12:36:16.718Z,16.39
2022-09-28T12:39:17.987Z,16.26
2022-09-28T12:42:15.103Z,16.27
2022-09-28T12:45:21.707Z,16.68
2022-09-28T12:48:13.933Z,16.29
2022-09-28T12:51:07.968Z,16.47
2022-09-28T12:53:53.173Z,16.39
2022-09-28T12:56:37.706Z,16.10
2022-09-28T12:59:32.274Z,16.03
2022-09-28T13:02:22.749Z,16.01
2022-09-28T13:05:13.629Z,15.89
2022-09-28T13:08:16.752Z,15.78
2022-09-28T13:11:22.869Z,16.10
2022-09-28T13:14:35.869Z,16.59
2022-09-28T13:17:32.671Z,16.05
2022-09-28T13:20:21.110Z,16.21
2022-09-28T13:23:06.554Z,16.04
2022-09-28T13:25:36.218Z,15.95
2022-09-28T13:28:05.945Z,15.73
2022-09-28T13:30:40.327Z,15.77
2022-09-28T13:33:14.051Z,15.74
2022-09-28T13:35:44.287Z,15.72
2022-09-28T13:38:17.497Z,15.67
2022-09-28T13:41:06.687Z,15.63
2022-09-28T13:44:04.756Z,15.65
2022-09-28T13:47:06.387Z,15.78
2022-09-28T13:50:00.532Z,15.87
2022-09-28T13:52:48.294Z,15.90
2022-09-28T13:55:25.396Z,16.06
2022-09-28T13:58:35.401Z,16.25
2022-09-28T14:01:16.248Z,16.42
2022-09-28T14:04:21.983Z,16.30
2022-09-28T14:07:08.633Z,16.16
2022-09-28T14:10:07.961Z,16.24
2022-09-28T14:12:34.766Z,16.31
2022-09-28T14:15:03.131Z,16.03
2022-09-28T14:18:04.388Z,16.11
2022-09-28T14:20:31.824Z,16.32
2022-09-28T14:23:58.949Z,16.36
2022-09-28T14:27:03.413Z,15.95
2022-09-28T14:29:36.217Z,15.84
2022-09-28T14:32:25.087Z,15.91
2022-09-28T14:35:07.438Z,15.79
2022-09-28T14:37:58.328Z,15.83
2022-09-28T14:41:03.577Z,15.93
2022-09-28T14:43:43.666Z,15.82
2022-09-28T14:46:11.320Z,15.61
2022-09-28T14:49:01.723Z,15.54
2022-09-28T14:51:31.727Z,15.67
2022-09-28T14:54:15.143Z,15.82
2022-09-28T14:56:54.349Z,15.60
2022-09-28T14:59:38.978Z,15.53
2022-09-28T15:02:11.555Z,15.61
2022-09-28T15:04:45.902Z,15.50
2022-09-28T15:07:29.747Z,15.55
2022-09-28T15:09:58.817Z,15.45
2022-09-28T15:12:31.241Z,15.57
2022-09-28T15:15:05.557Z,15.28
2022-09-28T15:17:39.712Z,15.43
2022-09-28T15:20:23.871Z,15.33
2022-09-28T15:22:57.305Z,15.28
2022-09-28T15:25:31.754Z,15.28
2022-09-28T15:28:13.191Z,15.16
2022-09-28T15:30:40.427Z,15.11
2022-09-28T15:33:53.848Z,15.20
2022-09-28T15:36:37.288Z,14.96
2022-09-28T15:39:21.847Z,15.11
2022-09-28T15:41:51.076Z,15.37
2022-09-28T15:44:30.182Z,15.20
2022-09-28T15:47:25.221Z,14.98
2022-09-28T15:50:04.423Z,14.93
2022-09-28T15:52:52.830Z,14.84
2022-09-28T15:55:42.404Z,14.95
2022-09-28T15:58:21.556Z,14.85
2022-09-28T16:01:23.102Z,14.76
2022-09-28T16:03:50.060Z,14.75
2022-09-28T16:06:16.994Z,14.85
2022-09-28T16:08:45.819Z,14.79
2022-09-28T16:11:35.606Z,14.66
2022-09-28T16:14:21.851Z,14.55
2022-09-28T16:16:52.247Z,14.55
2022-09-28T16:19:31.350Z,14.60
2022-09-28T16:22:07.546Z,14.65
2022-09-28T16:24:38.908Z,14.73
2022-09-28T16:27:30.571Z,14.70
2022-09-28T16:30:24.451Z,14.37
2022-09-28T16:33:01.952Z,14.27
2022-09-28T16:35:49.406Z,14.16
2022-09-28T16:38:18.965Z,14.14
2022-09-28T16:40:55.228Z,14.17
2022-09-28T16:43:27.707Z,14.25
2022-09-28T16:46:00.953Z,14.22
2022-09-28T16:48:30.695Z,14.06
2022-09-28T16:50:58.760Z,14.18
2022-09-28T16:53:45.392Z,14.12
2022-09-28T16:56:12.812Z,14.12
2022-09-28T16:58:39.853Z,14.08
2022-09-28T17:01:09.974Z,14.15
2022-09-28T17:03:37.098Z,14.07
2022-09-28T17:06:06.251Z,14.29
2022-09-28T17:08:33.908Z,14.22
2022-09-28T17:11:24.092Z,14.31
2022-09-28T17:13:51.867Z,14.07
2022-09-28T17:16:37.265Z,13.91
2022-09-28T17:19:25.113Z,13.95
2022-09-28T17:21:53.396Z,14.05
2022-09-28T17:24:20.907Z,13.95
2022-09-28T17:26:50.995Z,13.97
2022-09-28T17:29:19.210Z,13.95
2022-09-28T17:31:47.798Z,13.92
2022-09-28T17:34:16.194Z,14.03
2022-09-28T17:36:44.747Z,14.08
2022-09-28T17:39:17.578Z,14.07
2022-09-28T17:41:45.125Z,14.00
2022-09-28T17:44:15.091Z,13.92
2022-09-28T17:46:47.427Z,13.93
2022-09-28T17:49:15.338Z,13.89
2022-09-28T17:51:42.345Z,13.87
2022-09-28T17:54:09.343Z,13.85
2022-09-28T17:56:36.915Z,13.87
2022-09-28T17:59:07.284Z,13.97
2022-09-28T18:01:38.926Z,13.82
2022-09-28T18:04:09.093Z,13.86
2022-09-28T18:06:37.359Z,13.73
2022-09-28T18:09:05.462Z,13.60
2022-09-28T18:11:33.670Z,13.51
2022-09-28T18:14:00.946Z,13.59
2022-09-28T18:16:28.934Z,13.52
2022-09-28T18:18:56.343Z,13.48
2022-09-28T18:21:23.345Z,13.42
2022-09-28T18:23:50.625Z,13.40
2022-09-28T18:26:21.210Z,13.45
2022-09-28T18:28:48.267Z,13.19
2022-09-28T18:31:15.926Z,13.24
2022-09-28T18:33:43.419Z,13.15
2022-09-28T18:36:10.747Z,13.04
2022-09-28T18:38:38.734Z,13.04
2022-09-28T18:41:15.753Z,12.96
2022-09-28T18:43:49.343Z,12.88
2022-09-28T18:46:20.522Z,12.92
2022-09-28T18:48:47.856Z,13.08
2022-09-28T18:51:15.259Z,12.96
2022-09-28T18:53:42.418Z,12.67
2022-09-28T18:56:13.042Z,12.61
2022-09-28T18:58:42.004Z,12.59
2022-09-28T19:04:04.601Z,12.39
2022-09-28T19:06:34.324Z,12.55
2022-09-28T19:09:01.477Z,12.51
2022-09-28T19:11:28.942Z,12.35
2022-09-28T19:13:56.610Z,12.36
2022-09-28T19:16:29.358Z,12.43
2022-09-28T19:18:58.003Z,12.28
2022-09-28T19:21:27.124Z,12.16
2022-09-28T19:23:55.532Z,12.14
2022-09-28T19:26:27.347Z,12.20
2022-09-28T19:28:56.422Z,12.28
2022-09-28T19:31:24.467Z,12.02
2022-09-28T19:33:51.590Z,11.89
2022-09-28T19:36:23.693Z,12.00
2022-09-28T19:38:52.719Z,11.97
2022-09-28T19:41:44.186Z,11.90
2022-09-28T19:44:26.844Z,11.75
2022-09-28T19:46:58.552Z,11.66
2022-09-28T19:49:28.160Z,11.69
2022-09-28T19:54:56.681Z,11.62
2022-09-28T19:57:30.791Z,11.68
2022-09-28T20:00:02.374Z,11.64
2022-09-28T20:02:29.822Z,11.61
2022-09-28T20:04:56.824Z,11.62
2022-09-28T20:07:23.779Z,11.61
2022-09-28T20:09:50.782Z,11.53
2022-09-28T20:12:17.722Z,11.49
2022-09-28T20:14:44.660Z,11.49
2022-09-28T20:17:11.590Z,11.48
2022-09-28T20:19:38.558Z,11.54
2022-09-28T20:22:05.501Z,11.58
2022-09-28T20:24:32.997Z,11.48
2022-09-28T20:27:01.363Z,11.40
2022-09-28T20:29:29.069Z,11.39
2022-09-28T20:31:56.741Z,11.21
2022-09-28T20:34:23.706Z,11.06
2022-09-28T20:36:50.601Z,10.93
2022-09-28T20:39:17.719Z,11.00
2022-09-28T20:41:46.114Z,10.95
2022-09-28T20:44:13.315Z,10.97
2022-09-28T20:46:40.363Z,10.88
2022-09-28T20:49:07.814Z,10.90
2022-09-28T20:51:34.804Z,10.90
2022-09-28T20:54:01.807Z,10.90
2022-09-28T20:56:37.641Z,10.84
2022-09-28T20:59:11.385Z,10.78
2022-09-28T21:01:38.917Z,10.79
2022-09-28T21:04:08.123Z,10.77
2022-09-28T21:06:40.357Z,10.79
2022-09-28T21:09:10.047Z,10.76
2022-09-28T21:11:37.660Z,10.80
2022-09-28T21:14:07.127Z,10.87
2022-09-28T21:16:35.487Z,10.91
2022-09-28T21:19:02.910Z,10.80
2022-09-28T21:21:30.025Z,10.91
2022-09-28T21:23:58.255Z,11.01
2022-09-28T21:26:28.992Z,10.93
2022-09-28T21:28:58.085Z,10.93
2022-09-28T21:31:29.416Z,10.88
2022-09-28T21:33:57.725Z,10.93
2022-09-28T21:36:25.571Z,10.98
2022-09-28T21:38:54.217Z,11.05
2022-09-28T21:41:21.171Z,11.01
2022-09-28T21:43:48.071Z,11.03
2022-09-28T21:46:15.050Z,11.01
2022-09-28T21:48:42.013Z,11.11
2022-09-28T21:51:13.042Z,11.12
2022-09-28T21:53:39.952Z,11.02
2022-09-28T21:56:11.729Z,11.04
2022-09-28T21:58:39.586Z,11.16
2022-09-28T22:01:16.824Z,10.98
2022-09-28T22:03:47.899Z,10.91
2022-09-28T22:06:19.372Z,10.87
2022-09-28T22:08:48.294Z,10.86
2022-09-28T22:11:18.653Z,10.82
2022-09-28T22:13:48.862Z,10.81
2022-09-28T22:16:19.765Z,10.78
2022-09-28T22:18:47.419Z,10.73
2022-09-28T22:21:22.426Z,10.60
2022-09-28T22:23:50.021Z,10.59
2022-09-28T22:26:25.316Z,10.66
2022-09-28T22:29:05.422Z,10.54
2022-09-28T22:31:36.029Z,10.40
2022-09-28T22:34:04.146Z,10.49
2022-09-28T22:36:31.765Z,10.47
2022-09-28T22:38:59.736Z,10.36
2022-09-28T22:41:27.265Z,10.40
2022-09-28T22:43:54.813Z,10.34
2022-09-28T22:46:28.511Z,10.33
2022-09-28T22:48:58.331Z,10.26
2022-09-28T22:51:27.958Z,10.29
2022-09-28T22:53:56.547Z,10.41
2022-09-28T22:56:23.847Z,10.24
2022-09-28T22:58:50.792Z,10.16
2022-09-28T23:01:22.147Z,10.20
2022-09-28T23:03:51.026Z,10.17
2022-09-28T23:06:21.103Z,10.13
2022-09-28T23:08:50.346Z,10.15
2022-09-28T23:11:17.557Z,10.07
2022-09-28T23:13:52.385Z,10.07
2022-09-28T23:16:20.236Z,10.10
2022-09-28T23:18:49.200Z,10.11
2022-09-28T23:21:23.058Z,10.06
2022-09-28T23:23:56.767Z,10.13
2022-09-28T23:26:28.171Z,10.11
2022-09-28T23:28:56.089Z,10.06
2022-09-28T23:31:29.253Z,10.09
2022-09-28T23:34:06.483Z,10.04
2022-09-28T23:36:34.596Z,10.08
2022-09-28T23:39:01.936Z,9.98
2022-09-28T23:41:29.145Z,9.96
2022-09-28T23:43:56.278Z,9.92
2022-09-28T23:46:23.270Z,9.97
2022-09-28T23:48:50.491Z,9.99
2022-09-28T23:51:17.627Z,9.93
2022-09-28T23:53:44.859Z,9.98
2022-09-28T23:56:12.660Z,9.90
2022-09-28T23:58:39.590Z,9.74
